createdAt,value
2018-06-09T00:00:53.343Z,66.02
2018-06-09T00:03:22.675Z,65.64
2018-06-09T00:05:52.863Z,66.00
2018-06-09T00:08:22.119Z,66.22
2018-06-09T00:10:52.528Z,66.53
2018-06-09T00:13:22.363Z,65.85
2018-06-09T00:15:51.599Z,65.71
2018-06-09T00:18:20.712Z,66.32
2018-06-09T00:20:49.967Z,66.10
2018-06-09T00:23:19.019Z,66.18
2018-06-09T00:25:48.143Z,66.44
2018-06-09T00:28:17.404Z,66.13
2018-06-09T00:30:46.449Z,66.36
2018-06-09T00:33:15.632Z,65.87
2018-06-09T00:35:45.011Z,66.36
2018-06-09T00:41:21.345Z,66.51
2018-06-09T00:43:50.763Z,66.78
2018-06-09T00:46:20.725Z,66.66
2018-06-09T00:48:50.442Z,66.77
2018-06-09T00:51:19.672Z,67.08
2018-06-09T00:53:49.558Z,67.11
2018-06-09T00:56:29.542Z,66.84
2018-06-09T00:59:00.425Z,67.06
2018-06-09T01:01:30.265Z,67.03
2018-06-09T01:04:00.265Z,66.68
2018-06-09T01:06:29.558Z,67.58
2018-06-09T01:08:59.521Z,67.07
2018-06-09T01:11:28.401Z,66.72
2018-06-09T01:13:57.180Z,66.40
2018-06-09T01:16:27.845Z,66.34
2018-06-09T01:18:56.597Z,65.30
2018-06-09T01:21:25.543Z,65.07
2018-06-09T01:23:54.613Z,65.82
2018-06-09T01:26:23.615Z,66.17
2018-06-09T01:28:52.372Z,66.27
2018-06-09T01:31:21.472Z,66.02
2018-06-09T01:33:50.397Z,66.44
2018-06-09T01:36:19.299Z,65.98
2018-06-09T01:38:48.099Z,66.50
2018-06-09T01:41:17.274Z,66.54
2018-06-09T01:43:46.115Z,66.19
2018-06-09T01:46:16.077Z,66.61
2018-06-09T01:48:45.231Z,65.74
2018-06-09T01:51:14.372Z,65.42
2018-06-09T01:53:43.620Z,64.83
2018-06-09T01:56:12.768Z,65.41
2018-06-09T01:58:41.584Z,65.53
2018-06-09T02:01:10.593Z,65.14
2018-06-09T02:03:39.474Z,64.55
2018-06-09T02:06:08.739Z,65.03
2018-06-09T02:08:37.941Z,64.79
2018-06-09T02:11:07.045Z,64.67
2018-06-09T02:13:37.176Z,63.84
2018-06-09T02:16:06.027Z,64.50
2018-06-09T02:18:34.974Z,66.05
2018-06-09T02:21:04.171Z,66.23
2018-06-09T02:23:33.404Z,65.29
2018-06-09T02:26:02.236Z,65.35
2018-06-09T02:28:31.164Z,64.65
2018-06-09T02:31:00.208Z,64.91
2018-06-09T02:33:29.077Z,64.83
2018-06-09T02:35:57.821Z,64.84
2018-06-09T02:38:26.634Z,64.52
2018-06-09T02:40:55.527Z,64.59
2018-06-09T02:43:24.396Z,64.26
2018-06-09T02:45:53.252Z,64.15
2018-06-09T02:48:22.032Z,63.78
2018-06-09T02:50:50.908Z,64.54
2018-06-09T02:53:19.651Z,64.40
2018-06-09T02:55:48.788Z,63.31
2018-06-09T02:58:18.070Z,64.09
2018-06-09T03:00:46.936Z,64.31
2018-06-09T03:03:15.841Z,64.32
2018-06-09T03:05:45.108Z,64.14
2018-06-09T03:08:13.976Z,64.80
2018-06-09T03:10:43.044Z,64.44
2018-06-09T03:13:12.229Z,64.65
2018-06-09T03:15:41.027Z,65.22
2018-06-09T03:18:10.931Z,65.17
2018-06-09T03:20:40.050Z,66.21
2018-06-09T03:23:08.882Z,65.97
2018-06-09T03:25:37.953Z,66.74
2018-06-09T03:28:06.872Z,66.29
2018-06-09T03:30:35.887Z,65.70
2018-06-09T03:33:06.018Z,65.29
2018-06-09T03:35:34.860Z,64.81
2018-06-09T03:38:03.540Z,64.30
2018-06-09T03:40:32.421Z,64.21
2018-06-09T03:43:02.361Z,64.19
2018-06-09T03:45:31.355Z,63.77
2018-06-09T03:48:00.482Z,63.19
2018-06-09T03:50:30.518Z,63.57
2018-06-09T03:52:59.589Z,62.85
2018-06-09T03:55:29.943Z,62.39
2018-06-09T03:57:58.994Z,62.33
2018-06-09T04:00:28.134Z,63.03
2018-06-09T04:02:57.351Z,63.42
2018-06-09T04:05:26.306Z,62.96
2018-06-09T04:07:55.198Z,62.97
2018-06-09T04:10:24.044Z,62.61
2018-06-09T04:12:53.094Z,62.80
2018-06-09T04:15:21.862Z,63.06
2018-06-09T04:17:50.693Z,62.41
2018-06-09T04:20:19.759Z,63.15
2018-06-09T04:22:48.440Z,62.25
2018-06-09T04:25:17.381Z,62.64
2018-06-09T04:27:46.285Z,62.67
2018-06-09T04:30:15.127Z,62.87
2018-06-09T04:32:43.948Z,62.59
2018-06-09T04:35:12.829Z,62.33
2018-06-09T04:37:45.298Z,62.10
2018-06-09T04:40:14.179Z,62.22
2018-06-09T04:42:43.254Z,62.43
2018-06-09T04:45:12.244Z,62.24
2018-06-09T04:47:41.135Z,62.72
2018-06-09T04:50:09.947Z,61.86
2018-06-09T04:52:38.786Z,61.15
2018-06-09T04:55:07.731Z,61.66
2018-06-09T04:57:36.684Z,61.00
2018-06-09T05:00:05.727Z,60.65
2018-06-09T05:02:34.923Z,60.95
2018-06-09T05:05:04.074Z,60.50
2018-06-09T05:07:33.228Z,60.34
2018-06-09T05:10:02.445Z,60.45
2018-06-09T05:12:32.412Z,61.02
2018-06-09T05:15:01.410Z,62.88
2018-06-09T05:17:30.261Z,63.60
2018-06-09T05:19:58.981Z,63.58
2018-06-09T05:22:27.719Z,63.56
2018-06-09T05:24:56.552Z,63.74
2018-06-09T05:27:25.395Z,62.58
2018-06-09T05:29:54.206Z,63.09
2018-06-09T05:32:23.181Z,62.26
2018-06-09T05:34:52.393Z,62.01
2018-06-09T05:37:21.399Z,62.34
2018-06-09T05:39:50.539Z,61.48
2018-06-09T05:42:19.781Z,60.24
2018-06-09T05:44:48.572Z,59.37
2018-06-09T05:47:17.396Z,58.50
2018-06-09T05:49:46.196Z,58.83
2018-06-09T05:52:16.231Z,58.42
2018-06-09T05:54:45.957Z,57.64
2018-06-09T05:57:14.627Z,57.68
2018-06-09T05:59:43.356Z,58.26
2018-06-09T06:02:12.874Z,59.90
2018-06-09T06:04:41.515Z,58.77
2018-06-09T06:07:10.274Z,58.64
2018-06-09T06:09:38.946Z,58.24
2018-06-09T06:12:07.994Z,58.25
2018-06-09T06:14:36.983Z,57.99
2018-06-09T06:17:05.703Z,57.38
2018-06-09T06:19:34.417Z,57.89
2018-06-09T06:22:03.103Z,58.29
2018-06-09T06:24:32.210Z,58.98
2018-06-09T06:27:01.361Z,58.77
2018-06-09T06:29:30.288Z,57.36
2018-06-09T06:31:59.015Z,57.24
2018-06-09T06:34:27.688Z,56.35
2018-06-09T06:36:56.565Z,55.64
2018-06-09T06:39:25.232Z,54.59
2018-06-09T06:41:53.988Z,54.41
2018-06-09T06:44:22.721Z,55.46
2018-06-09T06:46:51.415Z,55.17
2018-06-09T06:49:20.141Z,53.67
2018-06-09T06:51:48.833Z,53.49
2018-06-09T06:54:18.181Z,54.05
2018-06-09T06:56:47.336Z,53.46
2018-06-09T06:59:16.440Z,54.17
2018-06-09T07:01:45.367Z,52.95
2018-06-09T07:04:14.106Z,52.88
2018-06-09T07:06:42.941Z,53.75
2018-06-09T07:09:11.687Z,53.28
2018-06-09T07:11:40.387Z,52.66
2018-06-09T07:14:09.285Z,52.61
2018-06-09T07:16:38.064Z,52.60
2018-06-09T07:19:06.709Z,52.10
2018-06-09T07:21:35.476Z,51.93
2018-06-09T07:24:04.561Z,52.12
2018-06-09T07:26:36.374Z,52.37
2018-06-09T07:29:05.137Z,51.64
2018-06-09T07:31:33.887Z,51.35
2018-06-09T07:34:02.564Z,50.58
2018-06-09T07:36:31.484Z,51.23
2018-06-09T07:39:00.568Z,51.46
2018-06-09T07:41:31.447Z,50.49
2018-06-09T07:44:00.592Z,49.59
2018-06-09T07:46:30.040Z,49.49
2018-06-09T07:49:00.704Z,50.46
2018-06-09T07:51:29.817Z,49.86
2018-06-09T07:53:58.957Z,49.79
2018-06-09T07:56:29.002Z,49.67
2018-06-09T07:58:58.741Z,49.72
2018-06-09T08:01:27.942Z,50.66
2018-06-09T08:03:57.135Z,50.27
2018-06-09T08:06:26.030Z,49.77
2018-06-09T08:08:55.879Z,49.41
2018-06-09T08:11:24.792Z,50.11
2018-06-09T08:13:53.981Z,49.12
2018-06-09T08:16:24.029Z,50.32
2018-06-09T08:18:56.675Z,49.21
2018-06-09T08:21:26.604Z,49.41
2018-06-09T08:23:57.434Z,49.53
2018-06-09T08:26:31.815Z,50.84
2018-06-09T08:29:10.808Z,51.40
2018-06-09T08:31:40.949Z,52.47
2018-06-09T08:34:10.178Z,51.94
2018-06-09T08:36:40.350Z,52.79
2018-06-09T08:39:09.641Z,52.79
2018-06-09T08:41:40.590Z,52.55
2018-06-09T08:44:10.584Z,51.63
2018-06-09T08:46:39.848Z,51.01
2018-06-09T08:49:10.166Z,49.59
2018-06-09T08:51:39.457Z,49.98
2018-06-09T08:54:11.046Z,50.58
2018-06-09T08:56:43.118Z,49.51
2018-06-09T08:59:13.348Z,50.14
2018-06-09T09:01:43.067Z,50.05
2018-06-09T09:04:11.967Z,49.40
2018-06-09T09:06:53.881Z,52.81
2018-06-09T09:09:22.654Z,53.14
2018-06-09T09:11:51.407Z,52.17
2018-06-09T09:14:20.288Z,51.23
2018-06-09T09:16:50.155Z,50.56
2018-06-09T09:19:23.601Z,51.13
2018-06-09T09:21:54.395Z,50.90
2018-06-09T09:24:30.939Z,51.95
2018-06-09T09:27:12.912Z,51.22
2018-06-09T09:29:41.904Z,50.29
2018-06-09T09:32:19.060Z,49.15
2018-06-09T09:34:48.188Z,48.23
2018-06-09T09:37:20.634Z,47.02
2018-06-09T09:39:51.033Z,48.80
2018-06-09T09:42:23.793Z,47.67
2018-06-09T09:44:55.157Z,49.68
2018-06-09T09:47:24.885Z,48.27
2018-06-09T09:49:56.762Z,47.99
2018-06-09T09:52:26.707Z,47.53
2018-06-09T09:54:55.951Z,47.15
2018-06-09T09:57:25.127Z,46.81
2018-06-09T09:59:58.839Z,47.41
2018-06-09T10:02:29.483Z,46.57
2018-06-09T10:04:59.838Z,46.50
2018-06-09T10:07:28.731Z,45.87
2018-06-09T10:09:57.696Z,45.75
2018-06-09T10:12:31.815Z,45.10
2018-06-09T10:15:04.254Z,45.57
2018-06-09T10:17:39.615Z,44.42
2018-06-09T10:20:18.198Z,44.74
2018-06-09T10:22:53.488Z,45.72
2018-06-09T10:25:26.508Z,45.49
2018-06-09T10:27:56.360Z,45.20
2018-06-09T10:30:25.594Z,45.92
2018-06-09T10:32:54.682Z,45.15
2018-06-09T10:35:24.857Z,45.14
2018-06-09T10:37:53.774Z,44.42
2018-06-09T10:40:22.629Z,45.09
2018-06-09T10:42:53.162Z,44.04
2018-06-09T10:45:22.198Z,43.92
2018-06-09T10:47:51.919Z,43.77
2018-06-09T10:50:21.422Z,44.31
2018-06-09T10:52:51.370Z,43.62
2018-06-09T10:55:21.388Z,43.91
2018-06-09T10:57:51.522Z,45.56
2018-06-09T11:00:20.768Z,45.13
2018-06-09T11:02:51.208Z,44.40
2018-06-09T11:05:20.512Z,45.26
2018-06-09T11:07:49.809Z,45.08
2018-06-09T11:10:18.738Z,45.35
2018-06-09T11:12:49.180Z,44.88
2018-06-09T11:15:20.888Z,45.26
2018-06-09T11:17:51.086Z,45.27
2018-06-09T11:20:20.276Z,45.51
2018-06-09T11:22:49.357Z,43.22
2018-06-09T11:25:21.464Z,42.32
2018-06-09T11:27:52.680Z,43.23
2018-06-09T11:30:22.566Z,43.57
2018-06-09T11:32:52.122Z,43.86
2018-06-09T11:35:21.325Z,43.68
2018-06-09T11:37:54.160Z,43.90
2018-06-09T11:40:23.427Z,44.05
2018-06-09T11:42:56.533Z,44.34
2018-06-09T11:45:26.460Z,45.44
2018-06-09T11:47:59.335Z,44.99
2018-06-09T11:50:28.928Z,45.02
2018-06-09T11:52:59.081Z,44.11
2018-06-09T11:55:27.959Z,44.33
2018-06-09T11:57:58.024Z,45.06
2018-06-09T12:00:26.831Z,46.92
2018-06-09T12:03:00.789Z,47.26
2018-06-09T12:05:31.425Z,48.44
2018-06-09T12:08:00.242Z,47.62
2018-06-09T12:10:30.117Z,47.74
2018-06-09T12:13:02.216Z,47.75
2018-06-09T12:15:32.777Z,48.16
2018-06-09T12:18:05.116Z,47.80
2018-06-09T12:20:35.844Z,47.81
2018-06-09T12:23:05.962Z,47.30
2018-06-09T12:25:34.956Z,46.96
2018-06-09T12:28:04.664Z,47.08
2018-06-09T12:30:34.540Z,48.46
2018-06-09T12:33:03.760Z,48.77
2018-06-09T12:35:32.975Z,48.90
2018-06-09T12:38:31.423Z,48.28
2018-06-09T12:41:00.302Z,48.36
2018-06-09T12:43:29.278Z,47.55
2018-06-09T12:45:58.631Z,47.93
2018-06-09T12:48:31.131Z,47.98
2018-06-09T12:51:00.548Z,47.69
2018-06-09T12:53:29.717Z,50.04
2018-06-09T12:55:58.874Z,52.37
2018-06-09T12:58:28.137Z,52.29
2018-06-09T13:01:01.424Z,52.99
2018-06-09T13:03:30.584Z,53.74
2018-06-09T13:06:00.806Z,53.24
2018-06-09T13:08:29.884Z,53.81
2018-06-09T13:10:59.512Z,52.84
2018-06-09T13:13:29.319Z,53.52
2018-06-09T13:15:58.552Z,52.96
2018-06-09T13:18:27.647Z,53.02
2018-06-09T13:20:59.407Z,52.18
2018-06-09T13:23:28.469Z,50.86
2018-06-09T13:25:57.436Z,51.47
2018-06-09T13:28:26.520Z,51.18
2018-06-09T13:30:55.516Z,51.22
2018-06-09T13:33:24.592Z,51.10
2018-06-09T13:35:53.863Z,52.46
2018-06-09T13:38:22.803Z,53.25
2018-06-09T13:40:52.008Z,54.64
2018-06-09T13:43:20.834Z,54.51
2018-06-09T13:45:49.536Z,55.04
2018-06-09T13:48:18.496Z,55.18
2018-06-09T13:50:47.310Z,55.32
2018-06-09T13:53:18.641Z,55.32
2018-06-09T13:56:03.501Z,55.24
2018-06-09T13:58:32.684Z,55.16
2018-06-09T14:01:09.080Z,55.88
2018-06-09T14:03:39.630Z,54.51
2018-06-09T14:06:10.538Z,53.67
2018-06-09T14:08:39.621Z,51.14
2018-06-09T14:11:08.899Z,51.03
2018-06-09T14:13:38.268Z,49.26
2018-06-09T14:16:07.603Z,47.90
2018-06-09T14:18:36.733Z,46.81
2018-06-09T14:21:05.948Z,46.55
2018-06-09T14:23:35.044Z,45.43
2018-06-09T14:26:04.374Z,44.41
2018-06-09T14:28:33.508Z,42.35
2018-06-09T14:31:05.207Z,43.18
2018-06-09T14:33:34.701Z,43.49
2018-06-09T14:36:05.968Z,42.48
2018-06-09T14:38:41.606Z,44.56
2018-06-09T14:41:12.982Z,44.90
2018-06-09T14:43:42.287Z,45.38
2018-06-09T14:46:11.407Z,44.87
2018-06-09T14:48:40.654Z,43.65
2018-06-09T14:51:09.829Z,43.94
2018-06-09T14:53:39.163Z,44.14
2018-06-09T14:56:08.300Z,43.67
2018-06-09T14:58:37.762Z,43.06
2018-06-09T15:01:07.082Z,43.49
2018-06-09T15:03:36.792Z,42.70
2018-06-09T15:06:06.123Z,43.48
2018-06-09T15:08:35.316Z,42.96
2018-06-09T15:11:04.502Z,43.58
2018-06-09T15:13:34.115Z,43.25
2018-06-09T15:16:03.272Z,41.64
2018-06-09T15:18:32.719Z,42.63
2018-06-09T15:21:02.198Z,42.01
2018-06-09T15:23:31.281Z,42.47
2018-06-09T15:26:00.238Z,41.16
2018-06-09T15:28:29.477Z,42.19
2018-06-09T15:30:58.622Z,42.51
2018-06-09T15:33:28.219Z,41.75
2018-06-09T15:35:57.301Z,41.86
2018-06-09T15:38:26.383Z,40.89
2018-06-09T15:40:55.820Z,41.06
2018-06-09T15:43:25.115Z,41.34
2018-06-09T15:45:54.371Z,40.84
2018-06-09T15:48:24.034Z,41.79
2018-06-09T15:50:53.156Z,39.96
2018-06-09T15:53:22.491Z,40.31
2018-06-09T15:55:56.590Z,40.75
2018-06-09T15:58:25.836Z,41.49
2018-06-09T16:00:55.668Z,40.65
2018-06-09T16:03:31.366Z,40.90
2018-06-09T16:06:00.555Z,40.25
2018-06-09T16:08:30.447Z,40.38
2018-06-09T16:10:59.570Z,40.44
2018-06-09T16:13:28.870Z,38.49
2018-06-09T16:15:58.090Z,35.91
2018-06-09T16:18:29.029Z,35.47
2018-06-09T16:20:58.315Z,36.42
2018-06-09T16:23:27.571Z,37.33
2018-06-09T16:25:56.755Z,36.72
2018-06-09T16:28:25.898Z,37.02
2018-06-09T16:30:55.069Z,35.91
2018-06-09T16:33:24.260Z,36.27
2018-06-09T16:35:53.430Z,36.32
2018-06-09T16:38:22.543Z,35.23
2018-06-09T16:40:51.731Z,36.63
2018-06-09T16:43:21.251Z,38.01
2018-06-09T16:45:50.959Z,37.02
2018-06-09T16:48:20.104Z,37.23
2018-06-09T16:50:50.243Z,37.27
2018-06-09T16:53:21.077Z,36.89
2018-06-09T16:55:50.213Z,36.73
2018-06-09T16:58:19.496Z,36.72
2018-06-09T17:00:48.659Z,36.92
2018-06-09T17:03:19.793Z,37.37
2018-06-09T17:05:49.528Z,37.76
2018-06-09T17:08:18.771Z,37.38
2018-06-09T17:10:48.557Z,38.08
2018-06-09T17:13:18.536Z,38.11
2018-06-09T17:15:48.391Z,39.54
2018-06-09T17:18:17.531Z,43.65
2018-06-09T17:20:46.654Z,44.53
2018-06-09T17:23:18.981Z,44.64
2018-06-09T17:25:48.291Z,45.15
2018-06-09T17:28:17.618Z,45.22
2018-06-09T17:30:50.831Z,45.78
2018-06-09T17:33:20.629Z,45.98
2018-06-09T17:35:49.861Z,46.95
2018-06-09T17:38:21.544Z,47.21
2018-06-09T17:40:50.787Z,48.07
2018-06-09T17:43:19.946Z,48.91
2018-06-09T17:45:50.492Z,48.62
2018-06-09T17:48:20.293Z,49.06
2018-06-09T17:50:49.393Z,49.07
2018-06-09T17:53:18.940Z,49.12
2018-06-09T17:55:48.125Z,48.67
2018-06-09T17:58:17.443Z,49.41
2018-06-09T18:00:47.173Z,48.85
2018-06-09T18:03:16.471Z,49.82
2018-06-09T18:05:45.668Z,51.03
2018-06-09T18:08:14.788Z,51.60
2018-06-09T18:10:44.839Z,50.99
2018-06-09T18:13:29.590Z,51.34
2018-06-09T18:15:58.893Z,51.27
2018-06-09T18:18:28.081Z,51.19
2018-06-09T18:20:57.997Z,51.18
2018-06-09T18:23:27.120Z,51.46
2018-06-09T18:25:56.225Z,51.49
2018-06-09T18:28:25.560Z,52.07
2018-06-09T18:30:54.827Z,52.65
2018-06-09T18:33:24.451Z,56.38
2018-06-09T18:35:53.169Z,58.86
2018-06-09T18:38:22.142Z,59.52
2018-06-09T18:40:51.244Z,60.15
2018-06-09T18:43:21.367Z,60.11
2018-06-09T18:45:52.204Z,59.79
2018-06-09T18:48:23.413Z,59.66
2018-06-09T18:50:52.481Z,59.38
2018-06-09T18:53:22.589Z,59.72
2018-06-09T18:55:51.303Z,62.38
2018-06-09T18:58:20.817Z,63.41
2018-06-09T19:00:53.118Z,64.62
2018-06-09T19:03:22.311Z,64.33
2018-06-09T19:05:51.443Z,63.76
2018-06-09T19:08:23.039Z,63.45
2018-06-09T19:10:51.816Z,63.69
2018-06-09T19:13:20.578Z,64.67
2018-06-09T19:15:49.608Z,63.99
2018-06-09T19:18:18.661Z,63.43
2018-06-09T19:20:47.422Z,63.55
2018-06-09T19:23:16.693Z,63.69
2018-06-09T19:25:45.870Z,63.73
2018-06-09T19:28:15.852Z,64.31
2018-06-09T19:30:46.467Z,64.35
2018-06-09T19:33:16.665Z,64.28
2018-06-09T19:35:45.846Z,64.14
2018-06-09T19:38:14.960Z,63.76
2018-06-09T19:40:44.197Z,64.22
2018-06-09T19:43:13.364Z,63.92
2018-06-09T19:45:42.688Z,63.85
2018-06-09T19:48:11.903Z,63.81
2018-06-09T19:50:41.010Z,64.12
2018-06-09T19:53:15.367Z,64.11
2018-06-09T19:55:44.238Z,64.25
2018-06-09T19:58:13.281Z,64.39
2018-06-09T20:00:42.403Z,64.27
2018-06-09T20:03:11.629Z,64.71
2018-06-09T20:05:40.795Z,65.37
2018-06-09T20:08:09.912Z,65.92
2018-06-09T20:10:38.786Z,66.70
2018-06-09T20:13:07.672Z,67.29
2018-06-09T20:15:36.389Z,67.31
2018-06-09T20:18:05.292Z,67.26
2018-06-09T20:20:34.318Z,67.78
2018-06-09T20:23:03.510Z,67.26
2018-06-09T20:25:32.361Z,67.02
2018-06-09T20:28:01.675Z,67.00
2018-06-09T20:30:30.631Z,67.71
2018-06-09T20:32:59.857Z,67.65
2018-06-09T20:35:29.015Z,68.08
2018-06-09T20:37:58.438Z,67.74
2018-06-09T20:40:27.391Z,68.14
2018-06-09T20:42:56.196Z,69.15
2018-06-09T20:45:25.219Z,70.23
2018-06-09T20:47:54.299Z,70.18
2018-06-09T20:50:23.533Z,69.78
2018-06-09T20:52:52.803Z,69.32
2018-06-09T20:55:22.005Z,69.38
2018-06-09T20:57:52.101Z,69.50
2018-06-09T21:00:21.129Z,69.92
2018-06-09T21:02:50.289Z,69.58
2018-06-09T21:05:19.339Z,69.05
2018-06-09T21:07:48.415Z,69.17
2018-06-09T21:10:17.531Z,69.29
2018-06-09T21:12:46.621Z,69.32
2018-06-09T21:15:15.763Z,69.30
2018-06-09T21:17:45.000Z,69.78
2018-06-09T21:20:14.141Z,70.15
2018-06-09T21:22:43.188Z,69.45
2018-06-09T21:25:12.249Z,69.40
2018-06-09T21:27:46.182Z,69.27
2018-06-09T21:30:17.034Z,69.48
2018-06-09T21:32:48.081Z,69.72
2018-06-09T21:35:33.043Z,69.98
2018-06-09T21:38:07.241Z,69.68
2018-06-09T21:40:50.263Z,70.14
2018-06-09T21:43:24.127Z,69.48
2018-06-09T21:45:53.099Z,70.08
2018-06-09T21:48:22.205Z,70.05
2018-06-09T21:50:51.455Z,70.45
2018-06-09T21:53:20.600Z,70.02
2018-06-09T21:55:49.729Z,70.41
2018-06-09T21:58:19.732Z,70.04
2018-06-09T22:00:48.867Z,70.82
2018-06-09T22:03:17.998Z,70.60
2018-06-09T22:05:47.763Z,70.51
2018-06-09T22:08:16.516Z,70.42
2018-06-09T22:10:45.301Z,70.61
2018-06-09T22:13:14.139Z,70.60
2018-06-09T22:15:43.026Z,70.69
2018-06-09T22:18:12.100Z,70.76
2018-06-09T22:20:40.851Z,70.91
2018-06-09T22:23:09.928Z,70.73
2018-06-09T22:26:41.072Z,70.72
2018-06-09T22:29:09.865Z,70.88
2018-06-09T22:31:39.206Z,70.95
2018-06-09T22:34:07.999Z,70.39
2018-06-09T22:36:36.800Z,70.24
2018-06-09T22:39:08.068Z,70.04
2018-06-09T22:41:37.268Z,71.01
2018-06-09T22:44:07.323Z,70.53
2018-06-09T22:46:36.493Z,71.04
2018-06-09T22:49:05.734Z,70.30
2018-06-09T22:51:34.844Z,70.50
2018-06-09T22:54:03.901Z,70.35
2018-06-09T22:56:32.998Z,70.59
2018-06-09T22:59:02.091Z,70.80
2018-06-09T23:01:31.937Z,71.07
2018-06-09T23:04:01.115Z,71.34
2018-06-09T23:06:29.824Z,71.06
2018-06-09T23:08:58.586Z,70.76
2018-06-09T23:11:27.280Z,70.98
2018-06-09T23:13:55.972Z,71.12
2018-06-09T23:16:24.720Z,71.28
2018-06-09T23:18:53.454Z,71.13
2018-06-09T23:21:22.153Z,71.12
2018-06-09T23:23:50.858Z,70.73
2018-06-09T23:26:20.027Z,73.41
2018-06-09T23:28:50.751Z,74.08
2018-06-09T23:31:19.479Z,74.23
2018-06-09T23:33:48.210Z,73.57
2018-06-09T23:36:17.355Z,73.03
2018-06-09T23:38:46.501Z,72.07
2018-06-09T23:41:15.582Z,72.57
2018-06-09T23:43:44.733Z,71.54
2018-06-09T23:46:13.441Z,72.26
2018-06-09T23:48:42.327Z,72.09
2018-06-09T23:51:11.403Z,71.80
2018-06-09T23:53:40.487Z,72.03
2018-06-09T23:56:09.695Z,71.56
2018-06-09T23:58:38.800Z,71.31
